createdAt,value
2023-05-14T00:01:21.894Z,296.50
2023-05-14T00:03:48.490Z,306.98
2023-05-14T00:06:15.259Z,299.20
2023-05-14T00:08:41.747Z,300.05
2023-05-14T00:11:09.143Z,288.10
2023-05-14T00:13:36.045Z,289.00
2023-05-14T00:16:02.677Z,303.40
2023-05-14T00:18:29.299Z,288.88
2023-05-14T00:20:55.877Z,284.83
2023-05-14T00:23:22.691Z,304.52
2023-05-14T00:25:49.292Z,289.17
2023-05-14T00:28:15.932Z,291.52
2023-05-14T00:30:42.490Z,298.85
2023-05-14T00:33:09.055Z,294.17
2023-05-14T00:35:35.889Z,291.35
2023-05-14T00:38:03.236Z,289.73
2023-05-14T00:40:29.827Z,286.88
2023-05-14T00:42:56.712Z,287.10
2023-05-14T00:45:23.421Z,290.92
2023-05-14T00:47:50.164Z,287.83
2023-05-14T00:50:16.848Z,288.25
2023-05-14T00:52:43.552Z,285.02
2023-05-14T00:55:12.938Z,284.00
2023-05-14T00:57:39.607Z,271.55
2023-05-14T01:00:06.630Z,265.65
2023-05-14T01:02:33.426Z,272.85
2023-05-14T01:05:00.204Z,265.90
2023-05-14T01:07:45.884Z,264.05
2023-05-14T01:10:19.946Z,272.10
2023-05-14T01:13:06.727Z,269.98
2023-05-14T01:15:34.813Z,268.30
2023-05-14T01:18:11.325Z,264.42
2023-05-14T01:20:37.887Z,261.73
2023-05-14T01:23:04.428Z,263.98
2023-05-14T01:25:31.462Z,269.80
2023-05-14T01:28:15.594Z,267.60
2023-05-14T01:31:02.375Z,267.30
2023-05-14T01:33:29.493Z,259.27
2023-05-14T01:35:56.425Z,259.50
2023-05-14T01:38:23.408Z,257.65
2023-05-14T01:40:50.716Z,252.70
2023-05-14T01:43:17.433Z,246.68
2023-05-14T01:45:44.160Z,256.80
2023-05-14T01:48:10.925Z,252.50
2023-05-14T01:50:37.549Z,254.20
2023-05-14T01:53:04.092Z,257.70
2023-05-14T01:55:30.709Z,250.32
2023-05-14T01:57:57.281Z,259.88
2023-05-14T02:16:24.586Z,225.57
2023-05-14T02:18:51.546Z,227.40
2023-05-14T02:21:18.647Z,213.77
2023-05-14T02:23:45.174Z,211.75
2023-05-14T02:26:12.324Z,214.05
2023-05-14T02:28:38.852Z,211.57
2023-05-14T02:31:05.544Z,222.27
2023-05-14T02:33:32.295Z,209.20
2023-05-14T02:35:58.951Z,209.55
2023-05-14T02:38:26.350Z,221.13
2023-05-14T02:40:53.022Z,220.43
2023-05-14T02:43:19.648Z,213.68
2023-05-14T02:45:46.182Z,207.95
2023-05-14T02:48:12.933Z,216.52
2023-05-14T02:50:39.579Z,219.70
2023-05-14T02:53:06.150Z,214.88
2023-05-14T02:55:32.683Z,211.85
2023-05-14T02:57:59.338Z,221.63
2023-05-14T03:00:26.142Z,217.05
2023-05-14T03:02:53.510Z,214.88
2023-05-14T03:05:20.740Z,215.32
2023-05-14T03:07:47.268Z,212.15
2023-05-14T03:10:13.781Z,208.32
2023-05-14T03:12:40.379Z,219.27
2023-05-14T03:15:07.426Z,219.65
2023-05-14T03:17:34.109Z,220.05
2023-05-14T03:20:00.798Z,215.48
2023-05-14T03:22:27.330Z,217.77
2023-05-14T03:24:54.014Z,234.68
2023-05-14T03:27:20.864Z,228.20
2023-05-14T03:29:47.447Z,230.30
2023-05-14T03:32:14.546Z,241.50
2023-05-14T03:34:41.142Z,266.92
2023-05-14T03:37:07.664Z,240.75
2023-05-14T03:39:34.309Z,231.80
2023-05-14T03:42:00.983Z,244.15
2023-05-14T03:44:27.620Z,224.20
2023-05-14T03:46:54.235Z,215.10
2023-05-14T03:49:21.361Z,230.43
2023-05-14T03:51:47.914Z,238.30
2023-05-14T03:54:14.637Z,229.70
2023-05-14T03:56:41.381Z,221.48
2023-05-14T03:59:08.567Z,229.95
2023-05-14T04:01:35.158Z,237.50
2023-05-14T04:04:02.015Z,229.13
2023-05-14T04:06:28.913Z,226.10
2023-05-14T04:08:55.526Z,230.50
2023-05-14T04:11:22.190Z,256.65
2023-05-14T04:13:49.286Z,247.23
2023-05-14T04:16:15.946Z,251.18
2023-05-14T04:18:42.629Z,206.52
2023-05-14T04:21:09.352Z,195.70
2023-05-14T04:23:35.849Z,313.15
2023-05-14T04:26:02.369Z,356.08
2023-05-14T04:28:28.884Z,347.70
2023-05-14T04:30:55.599Z,367.63
2023-05-14T04:33:22.309Z,353.60
2023-05-14T04:35:48.810Z,381.40
2023-05-14T04:38:15.510Z,387.55
2023-05-14T04:40:42.845Z,371.50
2023-05-14T04:43:09.748Z,397.25
2023-05-14T04:45:36.356Z,394.50
2023-05-14T04:48:03.885Z,402.73
2023-05-14T04:50:30.481Z,430.60
2023-05-14T04:52:57.057Z,414.73
2023-05-14T04:55:23.645Z,417.75
2023-05-14T04:57:50.260Z,407.27
2023-05-14T05:00:17.498Z,407.90
2023-05-14T05:02:44.028Z,466.67
2023-05-14T05:05:10.755Z,484.20
2023-05-14T05:07:37.239Z,442.60
2023-05-14T05:10:04.502Z,452.15
2023-05-14T05:12:31.138Z,455.95
2023-05-14T05:14:57.856Z,440.27
2023-05-14T05:17:25.001Z,464.73
2023-05-14T05:19:51.562Z,454.27
2023-05-14T05:22:19.463Z,451.17
2023-05-14T05:24:46.734Z,444.92
2023-05-14T05:27:14.540Z,458.08
2023-05-14T05:29:41.004Z,443.08
2023-05-14T05:32:07.815Z,445.77
2023-05-14T05:34:34.763Z,451.77
2023-05-14T05:37:01.443Z,457.27
2023-05-14T05:39:28.167Z,461.52
2023-05-14T05:41:54.772Z,471.45
2023-05-14T05:44:21.412Z,461.05
2023-05-14T05:46:48.006Z,472.30
2023-05-14T05:49:14.714Z,471.15
2023-05-14T05:51:41.212Z,463.55
2023-05-14T05:54:08.408Z,441.67
2023-05-14T05:56:35.124Z,480.10
2023-05-14T05:59:02.054Z,475.27
2023-05-14T06:01:29.431Z,469.40
2023-05-14T06:03:58.724Z,482.80
2023-05-14T06:06:25.571Z,484.13
2023-05-14T06:08:52.083Z,465.67
2023-05-14T06:11:18.713Z,472.52
2023-05-14T06:13:45.400Z,474.50
2023-05-14T06:16:11.950Z,473.80
2023-05-14T06:18:38.531Z,461.23
2023-05-14T06:21:05.057Z,8.90
2023-05-14T06:23:31.586Z,10.43
2023-05-14T06:25:58.025Z,12.82
2023-05-14T06:28:24.557Z,12.85
2023-05-14T06:30:51.120Z,13.43
2023-05-14T06:33:19.386Z,9.32
2023-05-14T06:35:47.238Z,9.65
2023-05-14T06:38:14.331Z,9.20
2023-05-14T06:40:41.543Z,8.43
2023-05-14T06:43:08.191Z,9.80
2023-05-14T06:45:34.808Z,8.27
2023-05-14T06:48:01.485Z,7.60
2023-05-14T06:50:28.162Z,8.90
2023-05-14T06:52:54.712Z,10.05
2023-05-14T06:55:21.392Z,12.82
2023-05-14T06:57:47.910Z,10.05
2023-05-14T07:00:14.872Z,16.52
2023-05-14T07:02:41.496Z,33.50
2023-05-14T07:05:08.770Z,42.10
2023-05-14T07:07:35.352Z,140.02
2023-05-14T07:10:02.045Z,141.50
2023-05-14T07:12:28.534Z,142.77
2023-05-14T07:14:56.996Z,177.00
2023-05-14T07:17:24.174Z,157.13
2023-05-14T07:19:51.364Z,132.70
2023-05-14T07:22:18.266Z,124.53
2023-05-14T07:24:45.434Z,152.48
2023-05-14T07:27:12.547Z,173.13
2023-05-14T07:29:39.090Z,247.48
2023-05-14T07:32:05.826Z,195.50
2023-05-14T07:34:32.401Z,171.82
2023-05-14T07:36:58.897Z,123.25
2023-05-14T07:39:25.652Z,105.82
2023-05-14T07:41:52.270Z,130.32
2023-05-14T07:44:18.912Z,114.45
2023-05-14T07:46:45.606Z,113.53
2023-05-14T07:49:12.106Z,148.07
2023-05-14T07:51:39.286Z,142.25
2023-05-14T07:54:05.975Z,120.97
2023-05-14T07:56:32.540Z,79.60
2023-05-14T07:58:59.101Z,747.05
2023-05-14T08:01:26.531Z,197.35
2023-05-14T08:03:53.218Z,998.05
2023-05-14T08:06:22.108Z,981.60
2023-05-14T08:08:48.925Z,962.85
2023-05-14T08:11:15.558Z,950.88
2023-05-14T08:13:42.226Z,842.75
2023-05-14T08:16:08.701Z,786.35
2023-05-14T08:18:35.374Z,746.00
2023-05-14T08:21:03.575Z,692.33
2023-05-14T08:23:30.673Z,662.88
2023-05-14T08:25:57.480Z,665.05
2023-05-14T08:28:24.240Z,642.60
2023-05-14T08:30:51.565Z,641.72
2023-05-14T08:33:18.343Z,619.10
2023-05-14T08:35:45.086Z,611.00
2023-05-14T08:38:11.944Z,594.13
2023-05-14T08:40:39.008Z,588.53
2023-05-14T08:43:06.305Z,600.58
2023-05-14T08:45:34.441Z,592.85
2023-05-14T08:48:02.160Z,541.85
2023-05-14T08:50:30.646Z,553.78
2023-05-14T08:52:57.591Z,551.85
2023-05-14T08:55:24.128Z,527.47
2023-05-14T08:57:50.873Z,559.67
2023-05-14T09:00:18.638Z,554.03
2023-05-14T09:02:46.422Z,537.60
2023-05-14T09:05:13.399Z,535.80
2023-05-14T09:07:40.070Z,560.92
2023-05-14T09:10:06.930Z,564.13
2023-05-14T09:12:33.528Z,533.00
2023-05-14T09:15:00.068Z,536.70
2023-05-14T09:17:29.675Z,703.47
2023-05-14T09:19:56.183Z,681.55
2023-05-14T09:22:22.733Z,678.47
2023-05-14T09:25:02.482Z,670.10
2023-05-14T09:27:34.255Z,659.92
2023-05-14T09:30:08.337Z,646.67
2023-05-14T09:32:39.218Z,646.65
2023-05-14T09:35:11.844Z,624.83
2023-05-14T09:37:38.376Z,592.88
2023-05-14T09:40:09.221Z,576.20
2023-05-14T09:42:35.966Z,541.97
2023-05-14T09:45:04.694Z,538.75
2023-05-14T09:47:32.923Z,526.38
2023-05-14T09:49:59.495Z,540.83
2023-05-14T09:52:26.337Z,524.33
2023-05-14T09:54:53.338Z,507.13
2023-05-14T09:57:20.389Z,499.50
2023-05-14T09:59:47.172Z,491.50
2023-05-14T10:02:25.318Z,486.52
2023-05-14T10:04:58.023Z,493.13
2023-05-14T10:07:29.162Z,498.40
2023-05-14T10:09:59.793Z,487.40
2023-05-14T10:12:28.680Z,506.27
2023-05-14T10:14:57.492Z,492.13
2023-05-14T10:17:27.523Z,492.75
2023-05-14T10:19:56.705Z,463.58
2023-05-14T10:22:24.389Z,452.48
2023-05-14T10:24:54.355Z,453.85
2023-05-14T10:27:21.611Z,465.45
2023-05-14T10:29:53.475Z,482.65
2023-05-14T10:32:20.514Z,423.77
2023-05-14T10:34:48.191Z,420.35
2023-05-14T10:37:15.839Z,453.80
2023-05-14T10:39:58.652Z,464.38
2023-05-14T10:42:32.486Z,590.40
2023-05-14T10:45:05.879Z,696.08
2023-05-14T10:47:32.424Z,650.60
2023-05-14T10:49:59.852Z,652.65
2023-05-14T10:52:26.591Z,614.55
2023-05-14T10:54:54.158Z,605.42
2023-05-14T10:57:21.604Z,613.88
2023-05-14T10:59:49.384Z,617.35
2023-05-14T11:02:29.175Z,594.70
2023-05-14T11:05:03.867Z,603.47
2023-05-14T11:07:32.418Z,567.70
2023-05-14T11:10:03.873Z,582.47
2023-05-14T11:12:30.761Z,575.17
2023-05-14T11:14:59.205Z,594.50
2023-05-14T11:17:26.509Z,559.33
2023-05-14T11:19:53.097Z,532.42
2023-05-14T11:22:19.603Z,534.63
2023-05-14T11:24:46.146Z,509.63
2023-05-14T11:27:12.976Z,507.42
2023-05-14T11:29:43.181Z,483.15
2023-05-14T11:32:09.844Z,488.08
2023-05-14T11:34:37.339Z,514.30
2023-05-14T11:37:07.257Z,547.15
2023-05-14T11:39:34.638Z,511.08
2023-05-14T11:42:03.104Z,521.55
2023-05-14T11:44:29.853Z,523.40
2023-05-14T11:46:59.505Z,524.65
2023-05-14T11:49:29.289Z,528.70
2023-05-14T11:51:59.125Z,515.22
2023-05-14T11:54:28.795Z,516.90
2023-05-14T11:56:59.060Z,505.35
2023-05-14T11:59:27.328Z,506.10
2023-05-14T12:01:54.400Z,463.83
2023-05-14T12:04:22.797Z,462.52
2023-05-14T12:06:49.931Z,451.58
2023-05-14T12:09:17.915Z,448.58
2023-05-14T12:11:46.456Z,424.52
2023-05-14T12:14:19.947Z,464.30
2023-05-14T12:16:47.007Z,457.80
2023-05-14T12:19:17.589Z,465.48
2023-05-14T12:21:45.137Z,477.23
2023-05-14T12:24:16.188Z,448.30
2023-05-14T12:26:46.002Z,456.30
2023-05-14T12:29:13.151Z,455.55
2023-05-14T12:31:45.505Z,453.65
2023-05-14T12:34:12.097Z,436.50
2023-05-14T12:36:38.545Z,435.38
2023-05-14T12:39:06.073Z,436.17
2023-05-14T12:41:33.269Z,455.63
2023-05-14T12:44:00.317Z,467.17
2023-05-14T12:46:27.535Z,474.48
2023-05-14T12:48:55.193Z,458.25
2023-05-14T12:51:22.142Z,469.20
2023-05-14T12:53:49.357Z,451.05
2023-05-14T12:56:16.085Z,438.23
2023-05-14T12:58:42.971Z,422.92
2023-05-14T13:01:10.091Z,439.77
2023-05-14T13:03:36.570Z,439.30
2023-05-14T13:06:03.194Z,428.55
2023-05-14T13:08:29.666Z,410.83
2023-05-14T13:10:56.564Z,422.88
2023-05-14T13:13:23.520Z,402.50
2023-05-14T13:15:50.250Z,428.20
2023-05-14T13:18:18.015Z,435.67
2023-05-14T13:20:45.568Z,452.10
2023-05-14T13:23:12.042Z,444.98
2023-05-14T13:25:38.743Z,437.05
2023-05-14T13:28:05.423Z,425.00
2023-05-14T13:30:32.413Z,417.88
2023-05-14T13:32:59.573Z,435.33
2023-05-14T13:35:26.417Z,438.45
2023-05-14T13:37:53.052Z,438.88
2023-05-14T13:40:19.858Z,457.88
2023-05-14T13:42:46.385Z,452.98
2023-05-14T13:45:13.213Z,453.35
2023-05-14T13:47:40.353Z,454.23
2023-05-14T13:50:07.208Z,401.90
2023-05-14T13:52:33.697Z,405.42
2023-05-14T13:55:00.361Z,394.35
2023-05-14T13:57:27.023Z,388.65
2023-05-14T13:59:54.876Z,387.08
2023-05-14T14:02:21.738Z,373.17
2023-05-14T14:04:49.404Z,369.00
2023-05-14T14:07:16.032Z,24.33
2023-05-14T14:09:42.566Z,8.73
2023-05-14T14:12:09.364Z,3.50
2023-05-14T14:14:35.888Z,7.70
2023-05-14T14:17:02.446Z,5.15
2023-05-14T14:19:29.065Z,5.32
2023-05-14T14:21:55.566Z,9.35
2023-05-14T14:24:22.190Z,5.80
2023-05-14T14:26:48.679Z,4.47
2023-05-14T14:29:15.314Z,15.18
2023-05-14T14:31:41.878Z,5.18
2023-05-14T14:34:08.475Z,9.68
2023-05-14T14:36:35.138Z,29.60
2023-05-14T14:39:01.684Z,8.75
2023-05-14T14:41:28.298Z,5.82
2023-05-14T14:43:54.793Z,4.25
2023-05-14T14:46:21.464Z,5.10
2023-05-14T14:48:47.950Z,10.57
2023-05-14T14:51:14.941Z,15.07
2023-05-14T14:53:41.473Z,657.75
2023-05-14T14:56:08.014Z,588.70
2023-05-14T14:58:34.640Z,423.15
2023-05-14T15:01:01.452Z,425.67
2023-05-14T15:03:28.296Z,533.13
2023-05-14T15:05:54.908Z,528.85
2023-05-14T15:08:24.583Z,588.08
2023-05-14T15:10:51.111Z,561.92
2023-05-14T15:13:17.695Z,565.42
2023-05-14T15:15:44.295Z,532.13
2023-05-14T15:18:11.138Z,486.85
2023-05-14T15:20:37.725Z,423.38
2023-05-14T15:23:04.450Z,416.58
2023-05-14T15:25:31.056Z,403.08
2023-05-14T15:27:57.693Z,364.80
2023-05-14T15:30:24.228Z,387.67
2023-05-14T15:32:50.963Z,411.80
2023-05-14T15:35:17.613Z,401.35
2023-05-14T15:37:54.935Z,417.38
2023-05-14T15:40:21.622Z,421.23
2023-05-14T15:42:48.473Z,8.57
2023-05-14T15:45:15.189Z,7.63
2023-05-14T15:47:41.883Z,4.72
2023-05-14T15:50:08.689Z,4.30
2023-05-14T15:52:36.449Z,10.82
2023-05-14T15:55:06.212Z,10.27
2023-05-14T15:57:32.841Z,4.75
2023-05-14T15:59:59.434Z,5.63
2023-05-14T16:02:26.049Z,5.78
2023-05-14T16:04:52.698Z,6.30
2023-05-14T16:07:19.207Z,7.07
2023-05-14T16:09:45.696Z,11.02
2023-05-14T16:12:12.492Z,3.95
2023-05-14T16:14:41.278Z,8.48
2023-05-14T16:17:08.654Z,11.85
2023-05-14T16:19:35.732Z,14.48
2023-05-14T16:22:02.407Z,8.90
2023-05-14T16:24:29.081Z,7.43
2023-05-14T16:26:56.129Z,10.02
2023-05-14T16:29:22.915Z,8.38
2023-05-14T16:31:49.878Z,6.97
2023-05-14T16:34:16.424Z,6.13
2023-05-14T16:36:43.295Z,11.30
2023-05-14T16:39:11.474Z,7.90
2023-05-14T16:41:38.080Z,7.18
2023-05-14T16:44:04.810Z,14.45
2023-05-14T16:46:32.564Z,5.13
2023-05-14T16:48:59.468Z,7.25
2023-05-14T16:51:26.057Z,6.45
2023-05-14T16:53:54.623Z,10.65
2023-05-14T16:56:22.447Z,5.10
2023-05-14T16:58:49.053Z,4.82
2023-05-14T17:01:15.846Z,6.18
2023-05-14T17:03:43.514Z,7.35
2023-05-14T17:06:10.219Z,5.95
2023-05-14T17:08:36.832Z,8.02
2023-05-14T17:11:05.885Z,6.10
2023-05-14T17:13:33.207Z,5.60
2023-05-14T17:16:00.205Z,11.90
2023-05-14T17:18:26.876Z,4.70
2023-05-14T17:20:53.590Z,4.65
2023-05-14T17:23:20.437Z,28.75
2023-05-14T17:25:46.954Z,8.70
2023-05-14T17:28:13.613Z,9.95
2023-05-14T17:30:40.310Z,9.25
2023-05-14T17:33:06.807Z,6.18
2023-05-14T17:35:36.285Z,9.05
2023-05-14T17:38:03.658Z,6.97
2023-05-14T17:40:30.277Z,9.98
2023-05-14T17:42:56.752Z,9.73
2023-05-14T17:45:23.622Z,6.75
2023-05-14T17:47:51.429Z,9.35
2023-05-14T17:50:18.446Z,19.55
2023-05-14T17:52:46.133Z,6.80
2023-05-14T17:55:12.730Z,8.02
2023-05-14T17:57:39.287Z,7.70
2023-05-14T18:00:06.135Z,13.40
2023-05-14T18:02:37.150Z,32.60
2023-05-14T18:05:03.867Z,22.08
2023-05-14T18:07:30.916Z,37.47
2023-05-14T18:09:57.868Z,23.95
2023-05-14T18:12:27.539Z,19.63
2023-05-14T18:14:54.275Z,19.08
2023-05-14T18:17:20.830Z,18.40
2023-05-14T18:19:47.954Z,12.77
2023-05-14T18:22:15.506Z,11.88
2023-05-14T18:24:44.141Z,8.30
2023-05-14T18:27:10.716Z,9.13
2023-05-14T18:29:37.472Z,13.40
2023-05-14T18:32:04.412Z,11.68
2023-05-14T18:34:30.994Z,14.93
2023-05-14T18:36:57.962Z,11.38
2023-05-14T18:39:24.478Z,13.27
2023-05-14T18:41:51.069Z,22.00
2023-05-14T18:44:17.740Z,20.77
2023-05-14T18:46:44.592Z,18.52
2023-05-14T18:49:11.383Z,20.90
2023-05-14T18:51:37.933Z,22.30
2023-05-14T18:54:04.505Z,18.88
2023-05-14T18:56:31.284Z,18.92
2023-05-14T18:58:57.737Z,18.70
2023-05-14T19:01:25.632Z,19.73
2023-05-14T19:03:52.920Z,17.05
2023-05-14T19:06:19.692Z,16.45
2023-05-14T19:08:46.453Z,15.73
2023-05-14T19:11:12.965Z,19.73
2023-05-14T19:13:39.564Z,21.13
2023-05-14T19:16:06.599Z,19.95
2023-05-14T19:18:33.161Z,22.45
2023-05-14T19:21:00.050Z,26.73
2023-05-14T19:23:26.590Z,32.35
2023-05-14T19:25:57.131Z,27.15
2023-05-14T19:28:23.659Z,24.17
2023-05-14T19:30:51.209Z,29.77
2023-05-14T19:33:18.907Z,17.92
2023-05-14T19:35:45.544Z,29.65
2023-05-14T19:38:12.056Z,16.75
2023-05-14T19:40:39.052Z,25.92
2023-05-14T19:43:05.536Z,21.63
2023-05-14T19:45:32.272Z,22.92
2023-05-14T19:47:58.734Z,18.67
2023-05-14T19:50:25.365Z,22.02
2023-05-14T19:52:51.759Z,17.95
2023-05-14T19:55:18.416Z,16.17
2023-05-14T19:57:44.927Z,14.07
2023-05-14T20:00:11.909Z,12.68
2023-05-14T20:02:40.761Z,14.80
2023-05-14T20:05:09.155Z,12.48
2023-05-14T20:07:35.767Z,12.88
2023-05-14T20:10:02.524Z,14.20
2023-05-14T20:12:29.020Z,13.98
2023-05-14T20:14:56.015Z,12.93
2023-05-14T20:17:22.700Z,15.40
2023-05-14T20:19:49.328Z,15.75
2023-05-14T20:22:16.132Z,14.50
2023-05-14T20:24:42.893Z,14.13
2023-05-14T20:27:09.493Z,12.25
2023-05-14T20:29:36.058Z,11.00
2023-05-14T20:32:02.599Z,15.15
2023-05-14T20:34:29.164Z,15.23
2023-05-14T20:36:56.069Z,11.07
2023-05-14T20:39:22.492Z,14.68
2023-05-14T20:41:49.026Z,14.35
2023-05-14T20:44:15.955Z,12.45
2023-05-14T20:46:43.155Z,13.05
2023-05-14T20:49:09.799Z,12.63
2023-05-14T20:51:36.222Z,11.30
2023-05-14T20:54:02.881Z,9.75
2023-05-14T20:56:30.357Z,13.82
2023-05-14T20:58:56.894Z,12.00
2023-05-14T21:01:23.375Z,12.43
2023-05-14T21:03:50.012Z,13.55
2023-05-14T21:06:16.626Z,11.10
2023-05-14T21:08:43.111Z,10.52
2023-05-14T21:11:09.619Z,11.23
2023-05-14T21:13:36.185Z,11.00
2023-05-14T21:16:02.785Z,11.05
2023-05-14T21:18:32.637Z,12.73
2023-05-14T21:20:59.295Z,9.30
2023-05-14T21:23:25.800Z,11.70
2023-05-14T21:25:54.722Z,12.57
2023-05-14T21:28:22.171Z,10.98
2023-05-14T21:30:49.949Z,9.77
2023-05-14T21:33:16.488Z,11.07
2023-05-14T21:35:43.027Z,10.23
2023-05-14T21:38:09.479Z,9.38
2023-05-14T21:40:36.015Z,11.15
2023-05-14T21:43:02.593Z,12.05
2023-05-14T21:45:31.622Z,8.82
2023-05-14T21:47:58.198Z,12.13
2023-05-14T21:50:24.842Z,10.70
2023-05-14T21:52:51.325Z,9.23
2023-05-14T21:55:17.902Z,13.85
2023-05-14T21:57:44.381Z,10.68
2023-05-14T22:00:13.041Z,7.03
2023-05-14T22:02:41.583Z,8.80
2023-05-14T22:05:08.171Z,10.52
2023-05-14T22:07:34.740Z,8.52
2023-05-14T22:10:01.224Z,8.80
2023-05-14T22:12:27.734Z,11.80
2023-05-14T22:14:54.269Z,8.18
2023-05-14T22:17:21.876Z,8.43
2023-05-14T22:19:48.408Z,12.27
2023-05-14T22:22:14.985Z,9.85
2023-05-14T22:24:41.452Z,7.40
2023-05-14T22:27:07.940Z,10.15
2023-05-14T22:29:35.715Z,9.98
2023-05-14T22:32:03.541Z,6.60
2023-05-14T22:34:30.105Z,11.02
2023-05-14T22:36:56.589Z,9.05
2023-05-14T22:39:23.103Z,8.98
2023-05-14T22:41:54.864Z,9.57
2023-05-14T22:44:21.922Z,8.50
2023-05-14T22:46:48.789Z,9.43
2023-05-14T22:49:15.562Z,11.57
2023-05-14T22:51:42.347Z,7.78
2023-05-14T22:54:08.847Z,6.25
2023-05-14T22:56:35.566Z,9.30
2023-05-14T22:59:02.045Z,8.95
2023-05-14T23:01:29.533Z,8.93
2023-05-14T23:03:56.161Z,9.45
2023-05-14T23:06:22.904Z,8.45
2023-05-14T23:08:49.413Z,7.45
2023-05-14T23:11:15.847Z,9.85
2023-05-14T23:13:42.279Z,7.43
2023-05-14T23:16:08.809Z,8.20
2023-05-14T23:18:35.465Z,9.23
2023-05-14T23:21:02.088Z,8.63
2023-05-14T23:23:28.623Z,9.10
2023-05-14T23:25:56.074Z,10.05
2023-05-14T23:28:22.638Z,10.82
2023-05-14T23:30:49.336Z,7.65
2023-05-14T23:33:15.873Z,6.97
2023-05-14T23:35:42.486Z,7.72
2023-05-14T23:38:09.129Z,6.65
2023-05-14T23:40:35.866Z,8.27
2023-05-14T23:43:02.369Z,10.50
2023-05-14T23:45:29.403Z,8.73
2023-05-14T23:47:57.358Z,7.93
2023-05-14T23:50:24.256Z,10.40
2023-05-14T23:52:54.099Z,7.72
2023-05-14T23:55:20.985Z,10.80
2023-05-14T23:57:47.668Z,8.75
